Time;durP1;ratioP1;P1;durP2;ratioP2;P2;SDS_P1;SDS_P2;PMS_P1;PMS_P2;Temp;Humidity;BMP_temperature;BMP_pressure;BME280_temperature;BME280_humidity;BME280_pressure;Samples;Min_cycle;Max_cycle;Signal;HPM_P1;HPM_P2
2023/10/11 00:00:40;;;;;;;0.20;0.20;;;;;;;16.40;92.93;100398.97;5089030;28;20020;-61
2023/10/11 00:03:16;;;;;;;0.20;0.20;;;;;;;16.36;93.26;100399.19;5084644;28;20059;-61
2023/10/11 00:05:43;;;;;;;0.30;0.30;;;;;;;16.32;93.72;100400.28;5082334;28;20051;-61
2023/10/11 00:08:13;;;;;;;0.20;0.20;;;;;;;16.27;93.21;100402.34;5073170;28;20054;-61
2023/10/11 00:10:53;;;;;;;0.28;0.28;;;;;;;16.21;93.55;100398.13;5072616;28;20135;-61
2023/10/11 00:13:23;;;;;;;0.20;0.20;;;;;;;16.17;93.54;100401.03;5081938;28;20051;-62
2023/10/11 00:15:52;;;;;;;0.30;0.30;;;;;;;16.15;94.02;100400.25;5088605;28;20024;-61
2023/10/11 00:18:26;;;;;;;0.30;0.30;;;;;;;16.11;94.23;100401.34;5085006;28;20070;-61
2023/10/11 00:20:56;;;;;;;0.30;0.30;;;;;;;16.07;94.20;100394.38;5088894;28;20099;-61
2023/10/11 00:23:24;;;;;;;0.20;0.20;;;;;;;16.02;94.34;100397.31;5087894;28;20055;-61
2023/10/11 00:25:51;;;;;;;0.20;0.20;;;;;;;16.01;94.00;100397.38;5088524;28;20027;-61
2023/10/11 00:28:20;;;;;;;0.20;0.20;;;;;;;16.01;93.46;100397.38;5084597;28;20035;-61
2023/10/11 00:30:46;;;;;;;0.30;0.30;;;;;;;16.01;93.23;100392.88;5088447;28;20039;-61
2023/10/11 00:33:12;;;;;;;0.30;0.30;;;;;;;16.02;92.98;100389.25;5082475;28;20036;-61
2023/10/11 00:35:48;;;;;;;0.30;0.30;;;;;;;15.98;92.57;100389.47;5087206;28;20460;-61
2023/10/11 00:38:42;;;;;;;0.20;0.20;;;;;;;16.02;92.05;100386.56;5085958;28;20031;-61
2023/10/11 00:41:12;;;;;;;0.30;0.30;;;;;;;16.01;92.72;100390.22;5067227;28;20025;-61
2023/10/11 00:43:52;;;;;;;0.30;0.30;;;;;;;16.01;92.01;100390.22;5067164;28;20377;-60
2023/10/11 00:46:38;;;;;;;0.30;0.30;;;;;;;15.98;91.93;100386.78;5082067;28;20050;-61
2023/10/11 00:51:30;;;;;;;0.30;0.30;;;;;;;15.93;92.26;100381.63;5088353;28;20161;-61
2023/10/11 00:53:58;;;;;;;0.30;0.30;;;;;;;15.93;92.35;100383.47;5085117;28;20179;-61
2023/10/11 00:56:31;;;;;;;0.30;0.30;;;;;;;15.88;91.94;100383.66;5086167;28;20039;-61
2023/10/11 00:58:57;;;;;;;0.30;0.30;;;;;;;15.85;92.90;100380.28;5069276;28;20195;-61
2023/10/11 01:01:23;;;;;;;0.30;0.30;;;;;;;15.79;93.24;100378.75;5084814;28;20036;-62
2023/10/11 01:03:49;;;;;;;0.30;0.30;;;;;;;15.72;93.68;100377.31;5088140;28;20471;-62
2023/10/11 01:06:16;;;;;;;0.30;0.30;;;;;;;15.65;93.36;100370.50;5083182;28;20024;-62
2023/10/11 01:08:41;;;;;;;0.30;0.30;;;;;;;15.62;93.47;100368.84;5088149;28;20495;-62
2023/10/11 01:11:11;;;;;;;0.30;0.30;;;;;;;15.63;94.46;100373.25;5082284;28;20052;-62
2023/10/11 01:13:40;;;;;;;0.30;0.30;;;;;;;15.61;93.93;100377.84;5078980;28;20514;-62
2023/10/11 01:16:14;;;;;;;0.30;0.30;;;;;;;15.60;94.47;100373.41;5083446;28;20036;-62
2023/10/11 01:18:42;;;;;;;0.30;0.30;;;;;;;15.51;94.25;100368.47;5088032;28;20031;-62
2023/10/11 01:21:09;;;;;;;0.30;0.30;;;;;;;15.55;93.95;100379.94;5084752;28;20034;-62
2023/10/11 01:23:35;;;;;;;0.30;0.30;;;;;;;15.49;94.66;100369.47;5087479;28;20039;-61
2023/10/11 01:26:07;;;;;;;0.30;0.30;;;;;;;15.48;94.22;100374.00;5087464;28;20074;-62
2023/10/11 01:28:37;;;;;;;0.30;0.30;;;;;;;15.43;94.46;100377.81;5086524;28;20414;-62
2023/10/11 01:31:08;;;;;;;0.30;0.30;;;;;;;15.40;95.04;100373.44;5078994;28;20043;-62
2023/10/11 01:33:40;;;;;;;0.30;0.30;;;;;;;15.45;94.76;100374.09;5084245;28;20035;-61
2023/10/11 01:36:18;;;;;;;0.30;0.30;;;;;;;15.42;93.55;100371.56;5080782;28;20141;-61
2023/10/11 01:38:46;;;;;;;0.30;0.30;;;;;;;15.39;94.52;100371.72;5074083;28;20032;-61
2023/10/11 01:41:19;;;;;;;0.30;0.30;;;;;;;15.38;94.18;100369.97;5086598;28;20119;-62
2023/10/11 01:43:49;;;;;;;0.30;0.30;;;;;;;15.39;94.01;100369.03;5081633;28;20024;-61
2023/10/11 01:46:17;;;;;;;0.30;0.30;;;;;;;15.37;93.66;100368.19;5079220;28;20127;-62
2023/10/11 01:48:45;;;;;;;0.30;0.30;;;;;;;15.35;94.24;100362.03;5088291;28;20100;-62
2023/10/11 01:51:21;;;;;;;0.30;0.30;;;;;;;15.30;94.49;100364.09;5087595;28;20398;-62
2023/10/11 01:53:47;;;;;;;0.20;0.20;;;;;;;15.28;95.52;100365.97;5085112;28;20055;-62
2023/10/11 01:56:17;;;;;;;0.30;0.30;;;;;;;15.28;94.87;100360.59;5087442;28;20050;-61
2023/10/11 01:58:43;;;;;;;0.25;0.25;;;;;;;15.24;95.32;100361.66;5087597;28;20035;-61
2023/10/11 02:01:21;;;;;;;0.25;0.25;;;;;;;15.10;94.60;100350.72;5090717;28;20036;-61
2023/10/11 02:03:53;;;;;;;0.30;0.30;;;;;;;15.07;94.88;100358.91;5081309;28;20454;-62
2023/10/11 02:06:22;;;;;;;0.30;0.30;;;;;;;14.97;94.99;100360.28;5090523;28;20049;-61
2023/10/11 02:08:48;;;;;;;0.30;0.30;;;;;;;14.92;94.66;100362.28;5054401;28;20033;-62
2023/10/11 02:11:16;;;;;;;0.30;0.30;;;;;;;14.88;94.89;100357.97;5089482;28;20056;-61
2023/10/11 02:13:42;;;;;;;0.30;0.30;;;;;;;14.81;96.67;100359.19;5074736;28;20032;-61
2023/10/11 02:16:11;;;;;;;0.30;0.30;;;;;;;14.82;97.25;100357.38;5090819;28;20035;-61
2023/10/11 02:18:38;;;;;;;0.30;0.30;;;;;;;14.78;96.88;100345.09;5087687;28;20456;-61
2023/10/11 02:21:06;;;;;;;0.30;0.30;;;;;;;14.78;96.69;100343.25;5089902;28;20067;-61
2023/10/11 02:23:42;;;;;;;0.30;0.30;;;;;;;14.75;97.86;100346.06;5080593;28;20031;-61
2023/10/11 02:26:16;;;;;;;0.38;0.38;;;;;;;14.70;97.34;100348.09;5086694;28;20028;-61
2023/10/11 02:28:45;;;;;;;0.30;0.30;;;;;;;14.68;98.08;100347.28;5081308;28;20059;-62
2023/10/11 02:31:19;;;;;;;0.30;0.30;;;;;;;14.63;98.37;100338.56;5089183;28;20524;-61
2023/10/11 02:33:45;;;;;;;0.30;0.30;;;;;;;14.59;98.45;100331.63;5088826;28;20101;-61
2023/10/11 02:36:17;;;;;;;0.30;0.30;;;;;;;14.55;98.65;100332.69;5085291;28;20103;-61
2023/10/11 02:38:47;;;;;;;0.30;0.30;;;;;;;14.58;98.38;100345.09;5088799;28;20575;-61
2023/10/11 02:41:20;;;;;;;0.30;0.30;;;;;;;14.52;98.42;100346.22;5089297;28;20100;-61
2023/10/11 02:43:49;;;;;;;0.30;0.30;;;;;;;14.51;99.05;100339.97;5087544;28;20040;-61
2023/10/11 02:46:16;;;;;;;0.30;0.30;;;;;;;14.46;99.89;100338.47;5071673;28;20458;-61
2023/10/11 02:48:46;;;;;;;0.30;0.30;;;;;;;14.41;99.01;100345.81;5086774;28;20031;-61
2023/10/11 02:51:17;;;;;;;0.40;0.40;;;;;;;14.37;99.81;100346.88;5090292;28;20055;-61
2023/10/11 02:53:46;;;;;;;0.40;0.40;;;;;;;14.36;99.52;100350.50;5084678;28;20101;-60
2023/10/11 02:56:12;;;;;;;0.30;0.30;;;;;;;14.28;100.00;100347.28;5090222;28;20658;-60
2023/10/11 02:58:39;;;;;;;0.30;0.30;;;;;;;14.21;100.00;100340.41;5090073;28;20032;-61
2023/10/11 03:01:20;;;;;;;0.30;0.30;;;;;;;14.17;100.00;100338.78;5089711;28;20031;-61
2023/10/11 03:03:47;;;;;;;0.35;0.35;;;;;;;14.12;100.00;100336.31;5077731;28;20029;-61
2023/10/11 03:06:13;;;;;;;0.30;0.30;;;;;;;14.10;100.00;100338.16;5089525;28;20137;-61
2023/10/11 03:08:40;;;;;;;0.30;0.30;;;;;;;14.09;100.00;100336.44;5080666;28;20480;-61
2023/10/11 03:11:08;;;;;;;0.30;0.30;;;;;;;14.06;100.00;100335.69;5088317;28;20044;-61
2023/10/11 03:13:41;;;;;;;0.30;0.30;;;;;;;14.05;100.00;100339.31;5087759;28;20040;-61
2023/10/11 03:16:12;;;;;;;0.40;0.40;;;;;;;14.07;100.00;100338.28;5069059;28;20067;-61
2023/10/11 03:18:39;;;;;;;0.35;0.35;;;;;;;14.06;100.00;100333.91;5086564;28;20056;-61
2023/10/11 03:21:16;;;;;;;0.30;0.30;;;;;;;14.08;100.00;100331.16;5088724;28;20078;-62
2023/10/11 03:23:43;;;;;;;0.30;0.30;;;;;;;14.05;100.00;100333.97;5078891;28;20384;-61
2023/10/11 03:26:22;;;;;;;0.40;0.40;;;;;;;14.06;100.00;100333.91;5068596;28;20025;-62
2023/10/11 03:28:57;;;;;;;0.30;0.30;;;;;;;14.04;100.00;100329.53;5087998;28;20032;-62
2023/10/11 03:31:31;;;;;;;0.40;0.40;;;;;;;13.96;100.00;100331.66;5088824;28;20024;-62
2023/10/11 03:34:11;;;;;;;0.30;0.30;;;;;;;13.86;100.00;100335.63;5077720;28;20030;-63
2023/10/11 03:36:49;;;;;;;0.30;0.30;;;;;;;13.76;100.00;100318.22;5089123;28;20398;-62
2023/10/11 03:39:39;;;;;;;0.22;0.22;;;;;;;13.77;100.00;100322.66;5073863;28;20762;-62
2023/10/11 03:42:07;;;;;;;0.30;0.30;;;;;;;13.72;100.00;100319.28;5087343;28;20036;-63
2023/10/11 03:44:37;;;;;;;0.40;0.40;;;;;;;13.70;100.00;100311.34;5083880;28;20048;-62
2023/10/11 03:47:09;;;;;;;0.30;0.30;;;;;;;13.79;100.00;100323.47;5078088;28;20031;-62
2023/10/11 03:52:04;;;;;;;0.40;0.40;;;;;;;13.85;100.00;100325.88;5089667;28;20032;-63
2023/10/11 03:54:30;;;;;;;0.30;0.30;;;;;;;13.88;100.00;100331.09;5084003;28;20073;-63
2023/10/11 03:56:56;;;;;;;0.40;0.40;;;;;;;13.94;100.00;100326.38;5080497;28;20025;-62
2023/10/11 03:59:26;;;;;;;0.38;0.38;;;;;;;14.02;100.00;100331.41;5069099;28;20535;-63
2023/10/11 04:01:54;;;;;;;0.40;0.40;;;;;;;14.04;100.00;100324.19;5080248;28;20091;-63
2023/10/11 04:04:21;;;;;;;0.40;0.40;;;;;;;14.06;100.00;100319.63;5079214;28;20043;-63
2023/10/11 04:07:22;;;;;;;0.30;0.30;;;;;;;14.03;100.00;100322.44;5089000;28;20028;-63
2023/10/11 04:09:39;;;;;;;0.40;0.40;;;;;;;14.04;100.00;100326.84;5086064;28;20051;-63
2023/10/11 04:12:05;;;;;;;0.40;0.40;;;;;;;13.97;100.00;100320.03;5060808;28;20053;-63
2023/10/11 04:14:44;;;;;;;0.30;0.30;;;;;;;13.96;100.00;100318.28;5061271;28;20514;-63
2023/10/11 04:17:24;;;;;;;0.30;0.30;;;;;;;13.95;100.00;100325.41;5062205;28;20814;-63
2023/10/11 04:23:01;;;;;;;0.30;0.30;;;;;;;13.93;100.00;100329.09;5063648;28;20039;-63
2023/10/11 04:25:26;;;;;;;0.40;0.40;;;;;;;13.92;100.00;100327.38;5067126;28;20484;-61
2023/10/11 04:27:56;;;;;;;0.35;0.35;;;;;;;13.89;100.00;100332.81;5067678;28;20032;-62
2023/10/11 04:30:41;;;;;;;0.30;0.30;;;;;;;13.86;100.00;100331.16;5067748;28;20028;-62
2023/10/11 04:33:11;;;;;;;0.40;0.40;;;;;;;13.86;100.00;100339.19;5062676;28;20048;-63
2023/10/11 04:35:42;;;;;;;0.30;0.30;;;;;;;13.93;100.00;100334.47;5068396;28;20420;-62
2023/10/11 04:38:10;;;;;;;0.40;0.40;;;;;;;13.99;100.00;100336.88;5065164;28;20063;-62
2023/10/11 04:40:42;;;;;;;0.40;0.40;;;;;;;14.01;100.00;100332.34;5061280;28;20060;-63
2023/10/11 04:43:29;;;;;;;0.30;0.30;;;;;;;14.09;100.00;100343.59;5062711;28;20025;-62
2023/10/11 04:45:59;;;;;;;0.40;0.40;;;;;;;14.17;100.00;100336.09;5067992;28;20137;-61
2023/10/11 04:48:30;;;;;;;0.30;0.30;;;;;;;14.22;99.36;100326.06;5064918;28;20024;-62
2023/10/11 04:51:39;;;;;;;0.30;0.30;;;;;;;14.26;98.94;100333.09;5067162;28;20472;-62
2023/10/11 04:53:58;;;;;;;0.40;0.40;;;;;;;14.33;97.64;100334.56;5055923;28;20044;-62
2023/10/11 04:59:17;;;;;;;0.40;0.40;;;;;;;14.30;95.84;100340.91;5066747;28;20036;-62
2023/10/11 05:04:14;;;;;;;0.30;0.30;;;;;;;14.22;95.34;100345.69;5056228;28;20397;-62
2023/10/11 05:06:41;;;;;;;0.30;0.30;;;;;;;14.19;95.08;100350.28;5048621;28;20028;-62
2023/10/11 05:09:21;;;;;;;0.30;0.30;;;;;;;14.14;95.30;100346.94;5066589;28;20503;-63
2023/10/11 05:11:53;;;;;;;0.35;0.35;;;;;;;14.12;96.02;100346.13;5078075;28;20501;-62
2023/10/11 05:14:37;;;;;;;0.40;0.40;;;;;;;14.09;96.01;100347.13;5087177;28;20479;-63
2023/10/11 05:19:46;;;;;;;0.32;0.32;;;;;;;14.02;96.24;100352.81;5085675;28;20064;-62
2023/10/11 05:22:23;;;;;;;0.40;0.40;;;;;;;14.00;96.03;100360.03;5087616;28;20028;-62
2023/10/11 05:27:49;;;;;;;0.40;0.40;;;;;;;13.76;97.02;100358.31;5086250;28;20020;-63
2023/10/11 05:32:49;;;;;;;0.40;0.40;;;;;;;13.64;97.97;100354.34;5088883;28;20024;-63
2023/10/11 05:51:27;;;;;;;0.40;0.40;;;;;;;13.42;100.00;100345.44;5078498;28;20488;-61
2023/10/11 05:53:54;;;;;;;0.40;0.40;;;;;;;13.45;100.00;100345.31;5088418;28;20028;-61
2023/10/11 05:56:22;;;;;;;0.30;0.30;;;;;;;13.49;100.00;100338.06;5089736;28;20069;-61
2023/10/11 05:58:52;;;;;;;0.40;0.40;;;;;;;13.60;99.82;100341.16;5080614;28;20036;-61
2023/10/11 06:01:22;;;;;;;0.38;0.38;;;;;;;13.65;100.00;100349.88;5088512;28;20023;-61
2023/10/11 06:03:51;;;;;;;0.30;0.30;;;;;;;13.67;100.00;100350.69;5090768;28;20024;-61
2023/10/11 06:06:24;;;;;;;0.30;0.30;;;;;;;13.70;99.81;100354.13;5089593;28;20047;-61
2023/10/11 06:08:50;;;;;;;0.40;0.40;;;;;;;13.73;100.00;100353.97;5080480;28;20020;-61
2023/10/11 06:11:16;;;;;;;0.40;0.40;;;;;;;13.81;99.67;100351.88;5086788;28;20139;-61
2023/10/11 06:13:43;;;;;;;0.40;0.40;;;;;;;13.82;100.00;100355.44;5088699;28;20027;-61
2023/10/11 06:16:13;;;;;;;0.40;0.40;;;;;;;13.90;99.90;100362.22;5079760;28;20089;-62
2023/10/11 06:18:39;;;;;;;0.40;0.40;;;;;;;13.97;99.54;100352.97;5071990;28;20031;-61
2023/10/11 06:21:24;;;;;;;0.30;0.30;;;;;;;14.05;99.14;100350.00;5071344;28;20028;-61
2023/10/11 06:23:51;;;;;;;0.30;0.30;;;;;;;14.14;97.84;100352.28;5085848;28;20028;-62
2023/10/11 06:29:06;;;;;;;0.40;0.40;;;;;;;14.32;97.08;100349.75;5048532;28;20412;-62
2023/10/11 06:31:43;;;;;;;0.30;0.30;;;;;;;14.43;96.90;100357.34;5088023;28;20036;-61
2023/10/11 06:34:16;;;;;;;0.30;0.30;;;;;;;14.57;96.11;100354.91;5082094;28;20431;-61
2023/10/11 06:36:48;;;;;;;0.28;0.28;;;;;;;14.70;94.21;100361.47;5090132;28;20035;-62
2023/10/11 06:42:21;;;;;;;0.30;0.30;;;;;;;14.98;92.76;100363.78;5044599;28;20957;-62
2023/10/11 06:44:58;;;;;;;0.30;0.30;;;;;;;15.19;91.50;100360.16;5082956;28;20032;-62
2023/10/11 06:47:26;;;;;;;0.30;0.30;;;;;;;15.39;90.13;100365.47;5084754;28;20028;-62
2023/10/11 06:49:56;;;;;;;0.30;0.30;;;;;;;15.62;88.85;100363.47;5079360;28;20031;-61
2023/10/11 06:52:30;;;;;;;0.30;0.30;;;;;;;16.02;87.70;100359.72;5081840;28;20032;-62
2023/10/11 06:57:39;;;;;;;0.30;0.30;;;;;;;16.63;82.48;100357.53;5081882;28;20032;-63
2023/10/11 07:00:12;;;;;;;0.30;0.30;;;;;;;16.98;81.46;100359.25;5087955;28;20038;-62
2023/10/11 07:02:38;;;;;;;0.20;0.20;;;;;;;17.62;79.12;100362.00;5077141;28;20427;-63
2023/10/11 07:05:17;;;;;;;0.30;0.30;;;;;;;18.69;75.02;100369.19;5074334;28;20032;-63
2023/10/11 07:07:47;;;;;;;0.30;0.30;;;;;;;20.54;66.89;100360.78;5072704;28;20106;-63
2023/10/11 07:10:31;;;;;;;0.20;0.20;;;;;;;22.28;59.10;100354.50;5074092;28;20119;-64
2023/10/11 07:13:03;;;;;;;0.20;0.20;;;;;;;23.38;52.69;100362.19;5066502;28;20044;-64
2023/10/11 07:15:40;;;;;;;0.20;0.20;;;;;;;23.82;49.73;100361.31;5065864;28;20085;-63
2023/10/11 07:18:21;;;;;;;0.20;0.20;;;;;;;23.96;50.02;100374.63;5048604;28;20040;-63
2023/10/11 07:20:58;;;;;;;0.20;0.20;;;;;;;24.64;48.24;100378.78;5058887;28;20029;-63
2023/10/11 07:23:27;;;;;;;0.20;0.20;;;;;;;25.01;47.02;100375.72;5049971;28;20044;-63
2023/10/11 07:25:59;;;;;;;0.20;0.20;;;;;;;24.87;46.88;100374.16;5053632;28;20520;-64
2023/10/11 07:28:35;;;;;;;0.20;0.20;;;;;;;25.10;46.00;100381.22;5051166;28;20048;-63
2023/10/11 07:31:04;;;;;;;0.17;0.17;;;;;;;25.17;45.84;100387.00;5050825;28;20147;-63
2023/10/11 07:33:31;;;;;;;0.20;0.20;;;;;;;25.50;45.55;100384.91;5050193;28;20036;-63
2023/10/11 07:35:59;;;;;;;0.10;0.10;;;;;;;25.91;44.34;100392.16;5049778;28;20025;-63
2023/10/11 07:38:33;;;;;;;0.20;0.20;;;;;;;25.86;43.92;100398.00;5061168;28;20032;-63
2023/10/11 07:41:05;;;;;;;0.10;0.10;;;;;;;25.91;43.63;100387.53;5057826;28;20099;-63
2023/10/11 07:43:32;;;;;;;0.10;0.10;;;;;;;26.51;42.85;100393.88;5054777;28;20099;-63
2023/10/11 07:46:01;;;;;;;0.10;0.10;;;;;;;26.88;41.95;100381.31;5050324;28;20032;-63
2023/10/11 07:48:31;;;;;;;0.10;0.10;;;;;;;27.39;41.83;100380.97;5051409;28;20028;-63
2023/10/11 07:50:59;;;;;;;0.10;0.10;;;;;;;27.40;40.63;100389.03;5048855;28;20143;-63
2023/10/11 07:53:25;;;;;;;0.10;0.10;;;;;;;27.36;41.17;100394.94;5052787;28;20450;-63
2023/10/11 07:55:51;;;;;;;0.10;0.10;;;;;;;27.22;41.37;100396.22;5055310;28;20166;-63
2023/10/11 07:58:26;;;;;;;0.10;0.10;;;;;;;27.57;40.73;100395.59;5050886;28;20115;-63
2023/10/11 08:00:51;;;;;;;0.10;0.10;;;;;;;27.81;40.65;100393.22;5052471;28;20491;-62
2023/10/11 08:03:17;;;;;;;0.10;0.10;;;;;;;27.93;40.18;100392.91;5051238;28;20029;-62
2023/10/11 08:05:46;;;;;;;0.10;0.10;;;;;;;27.49;40.77;100388.16;5046164;28;20036;-62
2023/10/11 08:08:15;;;;;;;0.10;0.10;;;;;;;27.59;40.63;100382.66;5048533;28;20036;-61
2023/10/11 08:10:44;;;;;;;0.10;0.10;;;;;;;27.73;40.30;100385.75;5051053;28;20136;-62
2023/10/11 08:13:23;;;;;;;0.10;0.10;;;;;;;28.24;39.63;100399.78;5079764;28;20028;-62
2023/10/11 08:15:59;;;;;;;0.10;0.10;;;;;;;28.37;39.08;100392.06;5076120;28;20020;-61
2023/10/11 08:18:26;;;;;;;0.00;0.00;;;;;;;28.59;39.35;100392.69;5074186;28;20044;-61
2023/10/11 08:20:52;;;;;;;0.10;0.10;;;;;;;28.88;39.35;100391.44;5072317;28;20113;-61
2023/10/11 08:23:28;;;;;;;0.00;0.00;;;;;;;28.75;38.77;100401.09;5073840;28;20071;-61
2023/10/11 08:25:57;;;;;;;0.10;0.10;;;;;;;28.47;39.29;100381.06;5082138;28;20032;-60
2023/10/11 08:28:34;;;;;;;0.10;0.10;;;;;;;28.61;39.45;100382.44;5065201;28;20028;-61
2023/10/11 08:31:00;;;;;;;0.10;0.10;;;;;;;28.70;39.69;100387.00;5073636;28;20029;-61
2023/10/11 08:33:25;;;;;;;0.10;0.10;;;;;;;28.63;38.87;100364.00;5070807;28;20044;-61
2023/10/11 08:35:53;;;;;;;0.10;0.10;;;;;;;28.79;39.41;100381.44;5078805;28;20028;-61
2023/10/11 08:38:20;;;;;;;0.05;0.05;;;;;;;28.77;38.83;100377.13;5081504;28;20024;-61
2023/10/11 08:40:50;;;;;;;0.00;0.00;;;;;;;28.43;39.63;100383.25;5075978;28;20553;-61
2023/10/11 08:43:16;;;;;;;0.00;0.00;;;;;;;28.42;39.30;100384.25;5071363;28;20590;-61
2023/10/11 08:45:59;;;;;;;0.00;0.00;;;;;;;28.31;40.08;100387.22;5076975;28;20097;-61
2023/10/11 08:48:25;;;;;;;0.00;0.00;;;;;;;28.53;39.69;100385.09;5075598;28;20036;-61
2023/10/11 08:50:55;;;;;;;0.00;0.00;;;;;;;28.27;39.96;100385.81;5085551;28;20064;-61
2023/10/11 08:53:21;;;;;;;0.00;0.00;;;;;;;28.28;39.88;100382.06;5070266;28;20032;-61
2023/10/11 08:55:56;;;;;;;0.00;0.00;;;;;;;28.31;40.56;100384.50;5077665;28;20028;-61
2023/10/11 08:58:27;;;;;;;0.00;0.00;;;;;;;28.72;40.48;100379.47;5067364;28;20016;-61
2023/10/11 09:00:55;;;;;;;0.00;0.00;;;;;;;28.65;39.45;100378.38;5057378;28;20443;-61
2023/10/11 09:03:26;;;;;;;0.00;0.00;;;;;;;28.96;40.33;100380.53;5073147;28;20039;-61
2023/10/11 09:05:58;;;;;;;0.00;0.00;;;;;;;28.65;40.03;100372.91;5072548;28;20044;-61
2023/10/11 09:08:32;;;;;;;0.00;0.00;;;;;;;28.82;39.56;100378.38;5069121;28;20035;-60
2023/10/11 09:11:06;;;;;;;0.00;0.00;;;;;;;29.32;39.77;100375.91;5082281;28;20572;-60
2023/10/11 09:13:36;;;;;;;0.00;0.00;;;;;;;29.57;38.97;100377.81;5070973;28;20506;-61
2023/10/11 09:16:08;;;;;;;0.00;0.00;;;;;;;29.70;39.09;100372.78;5062860;28;20025;-60
2023/10/11 09:18:34;;;;;;;0.00;0.00;;;;;;;29.70;39.04;100378.25;5066509;28;20058;-61
2023/10/11 09:21:09;;;;;;;0.00;0.00;;;;;;;29.55;39.53;100371.63;5068801;28;20508;-61
2023/10/11 09:23:39;;;;;;;0.00;0.00;;;;;;;29.48;38.86;100373.28;5059448;28;20021;-61
2023/10/11 09:26:06;;;;;;;0.00;0.00;;;;;;;29.63;39.25;100353.34;5066946;28;20036;-61
2023/10/11 09:28:40;;;;;;;0.00;0.00;;;;;;;29.72;38.64;100362.47;5064002;28;20121;-60
2023/10/11 09:31:11;;;;;;;0.00;0.00;;;;;;;29.77;39.36;100357.34;5059247;28;20388;-60
2023/10/11 09:33:40;;;;;;;0.00;0.00;;;;;;;30.10;39.14;100359.22;5053856;28;20036;-61
2023/10/11 09:36:07;;;;;;;0.00;0.00;;;;;;;30.51;38.29;100363.84;5056762;28;20025;-60
2023/10/11 09:38:39;;;;;;;0.00;0.00;;;;;;;30.69;38.21;100356.31;5053667;28;20060;-59
2023/10/11 09:41:08;;;;;;;0.00;0.00;;;;;;;30.85;37.63;100359.13;5052813;28;20804;-60
2023/10/11 09:43:44;;;;;;;0.00;0.00;;;;;;;30.96;36.88;100365.28;5067425;28;20101;-60
2023/10/11 09:46:13;;;;;;;0.00;0.00;;;;;;;31.05;37.02;100369.75;5057013;28;20017;-60
2023/10/11 09:48:42;;;;;;;0.00;0.00;;;;;;;31.25;37.44;100368.38;5060105;28;20131;-60
2023/10/11 09:51:15;;;;;;;0.00;0.00;;;;;;;31.73;37.00;100368.34;5059178;28;20024;-60
2023/10/11 09:53:50;;;;;;;;;;;;;;;31.98;36.85;100378.22;5064043;28;20060;-60
2023/10/11 09:56:53;;;;;;;0.00;0.00;;;;;;;32.13;35.71;100375.63;5054164;28;19932;-59
2023/10/11 09:59:35;;;;;;;0.00;0.00;;;;;;;32.29;36.56;100365.34;5055786;28;20036;-59
2023/10/11 10:02:09;;;;;;;0.00;0.00;;;;;;;32.08;35.15;100377.00;5055174;28;20035;-58
2023/10/11 10:04:49;;;;;;;0.00;0.00;;;;;;;31.95;36.11;100373.09;5066035;28;20025;-59
2023/10/11 10:07:25;;;;;;;0.00;0.00;;;;;;;32.08;35.92;100370.63;5068484;28;20070;-58
2023/10/11 10:10:01;;;;;;;0.00;0.00;;;;;;;32.35;35.53;100378.41;5057975;28;20054;-58
2023/10/11 10:12:43;;;;;;;0.00;0.00;;;;;;;32.23;35.67;100379.84;5070641;28;20859;-58
2023/10/11 10:15:14;;;;;;;0.00;0.00;;;;;;;32.21;35.60;100376.41;5085243;28;20096;-58
2023/10/11 10:18:00;;;;;;;0.00;0.00;;;;;;;32.38;34.96;100375.34;5074068;28;20043;-58
2023/10/11 10:20:32;;;;;;;0.00;0.00;;;;;;;32.73;35.19;100377.53;5071459;28;20085;-59
2023/10/11 10:23:16;;;;;;;0.00;0.00;;;;;;;32.67;35.43;100377.41;5082756;28;20029;-59
2023/10/11 10:26:11;;;;;;;0.00;0.00;;;;;;;32.72;34.70;100384.06;5070912;28;20462;-59
2023/10/11 10:28:38;;;;;;;0.00;0.00;;;;;;;32.69;35.64;100383.56;5057534;28;20032;-59
2023/10/11 10:31:21;;;;;;;0.00;0.00;;;;;;;32.94;35.48;100387.91;5079189;28;20049;-57
2023/10/11 10:34:05;;;;;;;0.00;0.00;;;;;;;33.02;35.36;100391.47;5086463;28;20106;-57
2023/10/11 10:36:31;;;;;;;0.00;0.00;;;;;;;32.67;35.30;100391.19;5074669;28;20041;-57
2023/10/11 10:41:44;;;;;;;0.00;0.00;;;;;;;33.32;34.84;100393.28;5072370;28;20458;-57
2023/10/11 10:44:11;;;;;;;0.00;0.00;;;;;;;33.22;34.98;100381.63;5070337;28;20052;-57
2023/10/11 10:46:45;;;;;;;0.00;0.00;;;;;;;33.78;34.75;100382.13;5069741;28;20025;-57
2023/10/11 10:49:11;;;;;;;0.00;0.00;;;;;;;33.67;35.64;100379.84;5072015;28;20025;-58
2023/10/11 10:51:36;;;;;;;0.00;0.00;;;;;;;33.78;35.36;100376.59;5087201;28;20039;-59
2023/10/11 10:54:13;;;;;;;0.00;0.00;;;;;;;33.81;35.22;100367.94;5080085;28;20060;-58
2023/10/11 10:56:40;;;;;;;0.00;0.00;;;;;;;33.73;35.10;100368.03;5082873;28;20039;-57
2023/10/11 10:59:12;;;;;;;0.00;0.00;;;;;;;34.05;34.61;100356.66;5072372;28;20064;-57
2023/10/11 11:01:44;;;;;;;0.00;0.00;;;;;;;34.46;34.11;100355.09;5073772;28;20028;-57
2023/10/11 11:04:11;;;;;;;0.00;0.00;;;;;;;34.50;33.79;100350.84;5090191;28;20031;-57
2023/10/11 11:06:51;;;;;;;0.00;0.00;;;;;;;34.49;33.20;100343.63;5087799;28;20065;-57
2023/10/11 11:09:27;;;;;;;0.00;0.00;;;;;;;34.95;34.05;100344.13;5075807;28;20024;-57
2023/10/11 11:11:57;;;;;;;0.00;0.00;;;;;;;35.17;33.82;100326.47;5067203;28;20081;-57
2023/10/11 11:14:23;;;;;;;0.00;0.00;;;;;;;35.39;32.95;100326.25;5051456;28;20029;-57
2023/10/11 11:17:00;;;;;;;0.00;0.00;;;;;;;35.17;31.89;100318.16;5052914;28;20029;-57
2023/10/11 11:19:26;;;;;;;0.00;0.00;;;;;;;35.18;33.29;100323.50;5059494;28;20027;-57
2023/10/11 11:22:19;;;;;;;0.00;0.00;;;;;;;35.04;32.30;100315.31;5053308;28;20021;-57
2023/10/11 11:24:46;;;;;;;0.00;0.00;;;;;;;35.13;32.99;100320.47;5068833;28;20052;-57
2023/10/11 11:27:18;;;;;;;0.00;0.00;;;;;;;35.44;33.76;100318.19;5064553;28;20048;-57
2023/10/11 11:29:47;;;;;;;0.00;0.00;;;;;;;35.68;32.92;100308.56;5054476;28;20035;-57
2023/10/11 11:32:16;;;;;;;0.00;0.00;;;;;;;35.16;31.82;100297.94;5058731;28;20028;-57
2023/10/11 11:35:02;;;;;;;0.00;0.00;;;;;;;35.30;32.97;100298.91;5058916;28;20086;-57
2023/10/11 11:37:29;;;;;;;0.00;0.00;;;;;;;35.22;31.65;100302.69;5057926;28;20040;-58
2023/10/11 11:40:18;;;;;;;0.00;0.00;;;;;;;35.06;32.90;100297.44;5059672;28;20073;-58
2023/10/11 11:42:47;;;;;;;0.00;0.00;;;;;;;34.89;32.05;100298.75;5056532;28;20110;-59
2023/10/11 11:45:14;;;;;;;0.00;0.00;;;;;;;34.94;31.91;100295.44;5057537;28;20028;-59
2023/10/11 11:47:40;;;;;;;0.00;0.00;;;;;;;34.94;31.77;100299.06;5066926;28;20456;-60
2023/10/11 11:50:18;;;;;;;0.00;0.00;;;;;;;34.78;32.33;100292.91;5044108;28;20040;-60
2023/10/11 11:52:43;;;;;;;0.00;0.00;;;;;;;35.13;32.78;100290.06;5059031;28;20051;-60
2023/10/11 11:55:10;;;;;;;0.00;0.00;;;;;;;35.10;32.83;100282.16;5060180;28;20465;-60
2023/10/11 11:57:35;;;;;;;0.00;0.00;;;;;;;35.35;32.65;100282.56;5050065;28;20032;-60
2023/10/11 12:00:19;;;;;;;0.00;0.00;;;;;;;35.67;33.06;100276.38;5052602;28;20029;-60
2023/10/11 12:02:45;;;;;;;0.00;0.00;;;;;;;35.86;32.01;100272.03;5066386;28;20495;-60
2023/10/11 12:05:11;;;;;;;0.00;0.00;;;;;;;35.72;32.74;100271.09;5057073;28;20033;-60
2023/10/11 12:07:36;;;;;;;0.00;0.00;;;;;;;35.72;32.72;100262.78;5061420;28;20747;-60
2023/10/11 12:10:10;;;;;;;0.00;0.00;;;;;;;35.94;32.14;100258.88;5051815;28;20167;-60
2023/10/11 12:12:36;;;;;;;0.00;0.00;;;;;;;35.75;32.14;100254.91;5069895;28;20121;-60
2023/10/11 12:15:03;;;;;;;0.00;0.00;;;;;;;35.94;31.75;100249.72;5075324;28;20032;-60
2023/10/11 12:17:29;;;;;;;0.00;0.00;;;;;;;35.63;33.08;100244.66;5090436;28;20034;-60
2023/10/11 12:19:54;;;;;;;0.00;0.00;;;;;;;35.82;33.53;100245.81;5086291;28;20457;-60
2023/10/11 12:22:22;;;;;;;0.00;0.00;;;;;;;35.97;32.98;100240.97;5086625;28;20148;-60
2023/10/11 12:24:47;;;;;;;0.00;0.00;;;;;;;36.01;32.07;100247.81;5080354;28;20440;-60
2023/10/11 12:27:13;;;;;;;0.00;0.00;;;;;;;36.03;32.37;100243.75;5083864;28;20023;-60
2023/10/11 12:29:39;;;;;;;0.00;0.00;;;;;;;36.14;31.85;100242.31;5087176;28;20413;-60
2023/10/11 12:32:06;;;;;;;0.00;0.00;;;;;;;36.25;32.11;100228.72;5086421;28;20391;-60